Terminal Aerodrome Forecast
Issued by NWS

Home | Current Version | Previous Version | Text Only | Print | Product List | Glossary On
Versions: 1 2 3 4 5 6 7 8 9 10 11 12 13 14 15 16 17 18 19 20 21 22 23 24 25 26 27
000
FTPQ31 PGUM 262158 RRK
TAFTPN
TAF
PTPN 262158Z 2622/2718 12011KT 6SM -RA VCTS SCT014CB BKN040 OVC080
      TEMPO 2622/2702 3SM +SHRA BKN012 OVC030
     FM270400 14011KT P6SM VCSH SCT016 BKN050 OVC100=

USA.gov is the U.S. government's official web portal to all federal, state and local government web resources and services.